Archival Weather

Phoenix Sky Harbor Intl

Phoenix, Arizona (KPHX)

Report from: Thursday, December 7, 2023 1:51 AM MST
Current time: Monday, July 22, 2024 4:03 AM MST

Current weather – Weather history – Daily summaries
Weather forecast

Temperature14.4°C (57.9°F)
Dew point1.7°C (35.1°F)
Winds 4 kts (2.1 m/s, 4.6 mph) East-Southeast (110°)
Visibility10 mi. (16.1 km)
Clouds Scattered clouds 25,000 ft. (7,620 m)
Altimeter29.99 in.Hg (1016 mB)
Relative humidity42 %
Density altitude2 ft. (1 m)
Sea-level pressure101.4 kPa (1014 mB, 29.95 in.Hg)
Remarks Automated weather observing station with precipitation discriminator
Pressure rising more slowly
Flight conditions Visual Meteorological Conditions
Raw dataKPHX 070851Z 11004KT 10SM SCT250 14/02 A2999 RMK AO2 SLP142 T01440017 51006
An error has occurred. This application may no longer respond until reloaded. Reload 🗙